Terminal Aerodrome Forecast
Issued by NWS Wilmington, OH

Current Version | Previous Version | Text Only | Print | Product List | Glossary Off
Versions: 1 2 3 4 5 6 7 8 9 10 11 12 13 14 15 16 17 18 19 20 21

000
FTUS41 KILN 171736
TAFDAY
TAF
KDAY 171736Z 1718/1818 16013KT P6SM SCT250
     FM180200 16012G20KT P6SM VCSH OVC080
     FM180400 18012G20KT 5SM -SHRA SCT025 OVC050
     FM180600 19014G23KT P6SM -SHRA OVC035
     FM180900 20016G29KT P6SM VCSH OVC015
     FM181700 20020G33KT P6SM -SHRA OVC012=

USA.gov is the U.S. government's official web portal to all federal, state and local government web resources and services.